DEDAF EDFE-LSZA
Flight info
| Callsign | DEDAF |
|---|---|
| Flight time | 1h 47m |
| Altitude | 5000 |
| Route | KRH DCT SUL DCT EDNY DCT KPT DCT SRN |
| Aircraft | BT36/L-BDFGLORY/S |
Departure
| Time | 2026-04-24 20:40 |
|---|---|
| Airport | Frankfurt-Egelsbach Airport (EDFE) |
Arrival
| Time | 2026-04-24 22:27 |
|---|---|
| Airport | Lugano Airport (LSZA) |
| Time | Latitude | Longitude | Altitude | Speed | Heading |
|---|---|---|---|---|---|
| 2026-04-24 20:22 | 49.96240 | 8.64282 | 383 ft | 0 kts | 265° |
| 2026-04-24 20:35 | 49.96213 | 8.64263 | 383 ft | 14 kts | 142° |
| 2026-04-24 20:35 | 49.96181 | 8.64438 | 386 ft | 22 kts | 86° |
| 2026-04-24 20:36 | 49.96192 | 8.64702 | 386 ft | 28 kts | 84° |
| 2026-04-24 20:36 | 49.96203 | 8.64937 | 385 ft | 15 kts | 86° |
| 2026-04-24 20:36 | 49.96192 | 8.64990 | 386 ft | 0 kts | 124° |
| 2026-04-24 20:38 | 49.96191 | 8.64992 | 386 ft | 1 kts | 123° |
| 2026-04-24 20:38 | 49.96185 | 8.65006 | 386 ft | 3 kts | 123° |
| 2026-04-24 20:38 | 49.96171 | 8.65040 | 387 ft | 0 kts | 127° |
| 2026-04-24 20:39 | 49.96149 | 8.65075 | 387 ft | 11 kts | 157° |
| 2026-04-24 20:39 | 49.96119 | 8.64927 | 384 ft | 38 kts | 266° |
| 2026-04-24 20:39 | 49.96063 | 8.64104 | 494 ft | 89 kts | 265° |
| 2026-04-24 20:39 | 49.95965 | 8.63220 | 714 ft | 86 kts | 259° |
| 2026-04-24 20:40 | 49.95801 | 8.62250 | 935 ft | 98 kts | 255° |
| 2026-04-24 20:40 | 49.95541 | 8.61116 | 1269 ft | 118 kts | 247° |
| 2026-04-24 20:40 | 49.95132 | 8.60489 | 1414 ft | 139 kts | 193° |
| 2026-04-24 20:40 | 49.94039 | 8.60725 | 1276 ft | 172 kts | 163° |
| 2026-04-24 20:41 | 49.92802 | 8.60969 | 1276 ft | 185 kts | 180° |
| 2026-04-24 20:41 | 49.91539 | 8.60709 | 1419 ft | 186 kts | 187° |
| 2026-04-24 20:41 | 49.90247 | 8.60460 | 1517 ft | 188 kts | 185° |
| 2026-04-24 20:41 | 49.88970 | 8.60209 | 1849 ft | 183 kts | 185° |
| 2026-04-24 20:42 | 49.87661 | 8.59994 | 1865 ft | 194 kts | 186° |
| 2026-04-24 20:42 | 49.86255 | 8.59845 | 1474 ft | 211 kts | 170° |
| 2026-04-24 20:42 | 49.85018 | 8.60889 | 1490 ft | 199 kts | 136° |
| 2026-04-24 20:42 | 49.84101 | 8.62247 | 1384 ft | 167 kts | 132° |
| 2026-04-24 20:43 | 49.83328 | 8.63430 | 1362 ft | 148 kts | 131° |
| 2026-04-24 20:43 | 49.82617 | 8.64560 | 1567 ft | 146 kts | 129° |
| 2026-04-24 20:43 | 49.81893 | 8.65680 | 1816 ft | 148 kts | 132° |
| 2026-04-24 20:43 | 49.81100 | 8.66726 | 2047 ft | 150 kts | 137° |
| 2026-04-24 20:44 | 49.80143 | 8.67489 | 2222 ft | 164 kts | 159° |
| 2026-04-24 20:44 | 49.78976 | 8.67834 | 2419 ft | 178 kts | 173° |
| 2026-04-24 20:44 | 49.77724 | 8.67760 | 2519 ft | 183 kts | 186° |
| 2026-04-24 20:44 | 49.76495 | 8.67374 | 2533 ft | 173 kts | 193° |
| 2026-04-24 20:45 | 49.75389 | 8.66954 | 2546 ft | 157 kts | 193° |
| 2026-04-24 20:45 | 49.74375 | 8.66464 | 2592 ft | 154 kts | 198° |
| 2026-04-24 20:45 | 49.73354 | 8.65892 | 2652 ft | 154 kts | 200° |
| 2026-04-24 20:45 | 49.72356 | 8.65276 | 2794 ft | 156 kts | 204° |
| 2026-04-24 20:46 | 49.71329 | 8.64556 | 2696 ft | 166 kts | 204° |
| 2026-04-24 20:46 | 49.70281 | 8.63772 | 2789 ft | 168 kts | 207° |
| 2026-04-24 20:46 | 49.69252 | 8.62920 | 2897 ft | 168 kts | 208° |
| 2026-04-24 20:46 | 49.68226 | 8.62068 | 2994 ft | 169 kts | 206° |
| 2026-04-24 20:47 | 49.67113 | 8.61317 | 2989 ft | 179 kts | 200° |
| 2026-04-24 20:47 | 49.65922 | 8.60682 | 2987 ft | 182 kts | 198° |
| 2026-04-24 20:47 | 49.64681 | 8.60364 | 2993 ft | 182 kts | 181° |
| 2026-04-24 20:47 | 49.63409 | 8.60531 | 2984 ft | 189 kts | 173° |
| 2026-04-24 20:48 | 49.62072 | 8.60713 | 2989 ft | 195 kts | 175° |
| 2026-04-24 20:48 | 49.60707 | 8.60879 | 2988 ft | 199 kts | 174° |
| 2026-04-24 20:48 | 49.59326 | 8.61022 | 2999 ft | 200 kts | 178° |
| 2026-04-24 20:48 | 49.57936 | 8.61077 | 2996 ft | 200 kts | 178° |
| 2026-04-24 20:49 | 49.56554 | 8.60934 | 2989 ft | 199 kts | 186° |
| 2026-04-24 20:49 | 49.55167 | 8.60860 | 2995 ft | 200 kts | 177° |
| 2026-04-24 20:49 | 49.53779 | 8.61057 | 2988 ft | 200 kts | 174° |
| 2026-04-24 20:49 | 49.52388 | 8.61151 | 2978 ft | 200 kts | 177° |
| 2026-04-24 20:50 | 49.51003 | 8.61221 | 2986 ft | 199 kts | 177° |
| 2026-04-24 20:50 | 49.49636 | 8.61226 | 3010 ft | 190 kts | 181° |
| 2026-04-24 20:50 | 49.48339 | 8.61158 | 3006 ft | 184 kts | 179° |
| 2026-04-24 20:50 | 49.47068 | 8.61132 | 2960 ft | 182 kts | 178° |
| 2026-04-24 20:51 | 49.45826 | 8.61236 | 2981 ft | 179 kts | 173° |
| 2026-04-24 20:51 | 49.44575 | 8.61385 | 2989 ft | 180 kts | 174° |
| 2026-04-24 20:51 | 49.43330 | 8.61491 | 3006 ft | 180 kts | 177° |
| 2026-04-24 20:51 | 49.42072 | 8.61505 | 2994 ft | 182 kts | 182° |
| 2026-04-24 20:52 | 49.40800 | 8.61425 | 2983 ft | 183 kts | 181° |
| 2026-04-24 20:52 | 49.39513 | 8.61338 | 2973 ft | 187 kts | 183° |
| 2026-04-24 20:52 | 49.38221 | 8.61287 | 2989 ft | 186 kts | 173° |
| 2026-04-24 20:52 | 49.36941 | 8.61567 | 2989 ft | 185 kts | 161° |
| 2026-04-24 20:53 | 49.35703 | 8.62141 | 3005 ft | 188 kts | 162° |
| 2026-04-24 20:53 | 49.34448 | 8.62732 | 2982 ft | 187 kts | 163° |
| 2026-04-24 20:53 | 49.33208 | 8.63232 | 2978 ft | 186 kts | 165° |
| 2026-04-24 20:53 | 49.31958 | 8.63753 | 3007 ft | 187 kts | 161° |
| 2026-04-24 20:54 | 49.30736 | 8.64404 | 3007 ft | 187 kts | 159° |
| 2026-04-24 20:54 | 49.29501 | 8.65052 | 2983 ft | 189 kts | 162° |
| 2026-04-24 20:54 | 49.28210 | 8.65513 | 2985 ft | 192 kts | 169° |
| 2026-04-24 20:54 | 49.26877 | 8.65745 | 2901 ft | 191 kts | 174° |
| 2026-04-24 20:55 | 49.25587 | 8.65990 | 2963 ft | 185 kts | 170° |
| 2026-04-24 20:55 | 49.24309 | 8.66299 | 2968 ft | 189 kts | 169° |
| 2026-04-24 20:55 | 49.23009 | 8.66632 | 2979 ft | 189 kts | 169° |
| 2026-04-24 20:55 | 49.21712 | 8.66974 | 2977 ft | 188 kts | 169° |
| 2026-04-24 20:56 | 49.20422 | 8.67313 | 2965 ft | 188 kts | 169° |
| 2026-04-24 20:56 | 49.19139 | 8.67648 | 2967 ft | 186 kts | 169° |
| 2026-04-24 20:56 | 49.17859 | 8.67973 | 2967 ft | 187 kts | 169° |
| 2026-04-24 20:56 | 49.16576 | 8.68306 | 2964 ft | 186 kts | 169° |
| 2026-04-24 20:57 | 49.15303 | 8.68629 | 2976 ft | 186 kts | 170° |
| 2026-04-24 20:57 | 49.14015 | 8.68955 | 2978 ft | 189 kts | 169° |
| 2026-04-24 20:57 | 49.12714 | 8.69288 | 2987 ft | 190 kts | 169° |
| 2026-04-24 20:57 | 49.11398 | 8.69444 | 2973 ft | 191 kts | 188° |
| 2026-04-24 20:58 | 49.10229 | 8.68553 | 2968 ft | 188 kts | 216° |
| 2026-04-24 20:58 | 49.09139 | 8.67458 | 2975 ft | 187 kts | 211° |
| 2026-04-24 20:58 | 49.08039 | 8.66449 | 2976 ft | 187 kts | 210° |
| 2026-04-24 20:58 | 49.06913 | 8.65443 | 2979 ft | 188 kts | 211° |
| 2026-04-24 20:59 | 49.05793 | 8.64393 | 2979 ft | 189 kts | 212° |
| 2026-04-24 20:59 | 49.04671 | 8.63349 | 3006 ft | 189 kts | 211° |
| 2026-04-24 20:59 | 49.03549 | 8.62323 | 2970 ft | 184 kts | 211° |
| 2026-04-24 20:59 | 49.02511 | 8.61360 | 2977 ft | 168 kts | 211° |
| 2026-04-24 21:00 | 49.01517 | 8.60451 | 2976 ft | 164 kts | 211° |
| 2026-04-24 21:00 | 49.00560 | 8.59579 | 2980 ft | 159 kts | 211° |
| 2026-04-24 21:00 | 48.99615 | 8.58717 | 2982 ft | 155 kts | 210° |
| 2026-04-24 21:00 | 48.98699 | 8.57872 | 2974 ft | 153 kts | 211° |
| 2026-04-24 21:01 | 48.97811 | 8.57087 | 2968 ft | 143 kts | 205° |
| 2026-04-24 21:01 | 48.96877 | 8.56975 | 2980 ft | 135 kts | 168° |
| 2026-04-24 21:01 | 48.95942 | 8.57179 | 2973 ft | 137 kts | 169° |
| 2026-04-24 21:01 | 48.94996 | 8.57378 | 2973 ft | 137 kts | 169° |
| 2026-04-24 21:02 | 48.94046 | 8.57465 | 2971 ft | 137 kts | 178° |
| 2026-04-24 21:02 | 48.93110 | 8.57468 | 2983 ft | 133 kts | 177° |
| 2026-04-24 21:02 | 48.92183 | 8.57488 | 2966 ft | 132 kts | 177° |
| 2026-04-24 21:02 | 48.91275 | 8.57512 | 2975 ft | 131 kts | 176° |
| 2026-04-24 21:03 | 48.90295 | 8.57564 | 2995 ft | 151 kts | 175° |
| 2026-04-24 21:03 | 48.89224 | 8.57675 | 3132 ft | 155 kts | 166° |
| 2026-04-24 21:03 | 48.88366 | 8.58525 | 3276 ft | 146 kts | 133° |
| 2026-04-24 21:03 | 48.87619 | 8.59550 | 3431 ft | 144 kts | 135° |
| 2026-04-24 21:04 | 48.86871 | 8.60570 | 3582 ft | 145 kts | 136° |
| 2026-04-24 21:04 | 48.86086 | 8.61657 | 3741 ft | 161 kts | 135° |
| 2026-04-24 21:04 | 48.85231 | 8.62834 | 3912 ft | 170 kts | 135° |
| 2026-04-24 21:04 | 48.84316 | 8.64066 | 3983 ft | 182 kts | 136° |
| 2026-04-24 21:05 | 48.83355 | 8.65385 | 3995 ft | 190 kts | 136° |
| 2026-04-24 21:05 | 48.82263 | 8.66578 | 3979 ft | 194 kts | 149° |
| 2026-04-24 21:05 | 48.81037 | 8.67369 | 3978 ft | 190 kts | 160° |
| 2026-04-24 21:05 | 48.79766 | 8.67721 | 3975 ft | 190 kts | 177° |
| 2026-04-24 21:06 | 48.78460 | 8.67678 | 3975 ft | 186 kts | 181° |
| 2026-04-24 21:06 | 48.77173 | 8.67591 | 3973 ft | 184 kts | 182° |
| 2026-04-24 21:06 | 48.75901 | 8.67486 | 3980 ft | 183 kts | 182° |
| 2026-04-24 21:06 | 48.74627 | 8.67384 | 3982 ft | 183 kts | 182° |
| 2026-04-24 21:07 | 48.73368 | 8.67285 | 3984 ft | 180 kts | 182° |
| 2026-04-24 21:07 | 48.72121 | 8.67185 | 3978 ft | 179 kts | 182° |
| 2026-04-24 21:07 | 48.70883 | 8.67082 | 3991 ft | 178 kts | 182° |
| 2026-04-24 21:07 | 48.69642 | 8.66982 | 3980 ft | 178 kts | 181° |
| 2026-04-24 21:08 | 48.68406 | 8.66889 | 3977 ft | 177 kts | 181° |
| 2026-04-24 21:08 | 48.67179 | 8.66792 | 3978 ft | 176 kts | 182° |
| 2026-04-24 21:08 | 48.65960 | 8.66692 | 3980 ft | 176 kts | 182° |
| 2026-04-24 21:08 | 48.64726 | 8.66595 | 3980 ft | 181 kts | 182° |
| 2026-04-24 21:09 | 48.63431 | 8.66498 | 3986 ft | 191 kts | 182° |
| 2026-04-24 21:09 | 48.62093 | 8.66394 | 3986 ft | 197 kts | 182° |
| 2026-04-24 21:09 | 48.60731 | 8.66284 | 3995 ft | 198 kts | 182° |
| 2026-04-24 21:09 | 48.59342 | 8.66168 | 3988 ft | 202 kts | 182° |
| 2026-04-24 21:10 | 48.57944 | 8.66062 | 3992 ft | 201 kts | 181° |
| 2026-04-24 21:10 | 48.56544 | 8.65954 | 3992 ft | 202 kts | 182° |
| 2026-04-24 21:10 | 48.55139 | 8.65840 | 3992 ft | 202 kts | 182° |
| 2026-04-24 21:10 | 48.53735 | 8.65729 | 3986 ft | 202 kts | 182° |
| 2026-04-24 21:11 | 48.52335 | 8.65616 | 3986 ft | 201 kts | 182° |
| 2026-04-24 21:11 | 48.50953 | 8.65505 | 3996 ft | 198 kts | 182° |
| 2026-04-24 21:11 | 48.49593 | 8.65392 | 3983 ft | 192 kts | 182° |
| 2026-04-24 21:11 | 48.48272 | 8.65286 | 3978 ft | 188 kts | 182° |
| 2026-04-24 21:12 | 48.46973 | 8.65191 | 3977 ft | 186 kts | 181° |
| 2026-04-24 21:12 | 48.46121 | 8.65141 | 3975 ft | 185 kts | 182° |
| 2026-04-24 21:12 | 48.44413 | 8.64976 | 3981 ft | 185 kts | 182° |
| 2026-04-24 21:12 | 48.43143 | 8.65206 | 3981 ft | 183 kts | 166° |
| 2026-04-24 21:13 | 48.41904 | 8.65633 | 3988 ft | 183 kts | 166° |
| 2026-04-24 21:13 | 48.40657 | 8.66062 | 3982 ft | 182 kts | 166° |
| 2026-04-24 21:13 | 48.39439 | 8.66477 | 3982 ft | 177 kts | 166° |
| 2026-04-24 21:13 | 48.38243 | 8.66884 | 3988 ft | 175 kts | 166° |
| 2026-04-24 21:14 | 48.37056 | 8.67291 | 3982 ft | 174 kts | 166° |
| 2026-04-24 21:14 | 48.35874 | 8.67694 | 3988 ft | 175 kts | 166° |
| 2026-04-24 21:14 | 48.34711 | 8.68135 | 3980 ft | 174 kts | 157° |
| 2026-04-24 21:14 | 48.33671 | 8.69023 | 3980 ft | 170 kts | 146° |
| 2026-04-24 21:15 | 48.32677 | 8.69970 | 3983 ft | 168 kts | 146° |
| 2026-04-24 21:15 | 48.31694 | 8.70904 | 3988 ft | 166 kts | 144° |
| 2026-04-24 21:15 | 48.30779 | 8.71889 | 4105 ft | 159 kts | 143° |
| 2026-04-24 21:15 | 48.29894 | 8.72846 | 4225 ft | 155 kts | 143° |
| 2026-04-24 21:16 | 48.29023 | 8.73801 | 4347 ft | 154 kts | 143° |
| 2026-04-24 21:16 | 48.28163 | 8.74751 | 4474 ft | 153 kts | 143° |
| 2026-04-24 21:16 | 48.27308 | 8.75703 | 4597 ft | 152 kts | 143° |
| 2026-04-24 21:16 | 48.26458 | 8.76655 | 4729 ft | 154 kts | 143° |
| 2026-04-24 21:17 | 48.25604 | 8.77624 | 4857 ft | 153 kts | 143° |
| 2026-04-24 21:17 | 48.24762 | 8.78594 | 4979 ft | 153 kts | 143° |
| 2026-04-24 21:17 | 48.23920 | 8.79564 | 5098 ft | 152 kts | 143° |
| 2026-04-24 21:17 | 48.23362 | 8.80211 | 5190 ft | 154 kts | 143° |
| 2026-04-24 21:18 | 48.22226 | 8.81523 | 5350 ft | 154 kts | 143° |
| 2026-04-24 21:18 | 48.21384 | 8.82502 | 5473 ft | 153 kts | 143° |
| 2026-04-24 21:18 | 48.20522 | 8.83504 | 5493 ft | 160 kts | 143° |
| 2026-04-24 21:18 | 48.19628 | 8.84540 | 5502 ft | 165 kts | 143° |
| 2026-04-24 21:19 | 48.18709 | 8.85608 | 5502 ft | 170 kts | 143° |
| 2026-04-24 21:19 | 48.17768 | 8.86697 | 5499 ft | 171 kts | 143° |
| 2026-04-24 21:19 | 48.16828 | 8.87778 | 5495 ft | 171 kts | 143° |
| 2026-04-24 21:19 | 48.15891 | 8.88863 | 5496 ft | 169 kts | 143° |
| 2026-04-24 21:20 | 48.14035 | 8.91018 | 5497 ft | 169 kts | 143° |
| 2026-04-24 21:20 | 48.13114 | 8.92083 | 5507 ft | 172 kts | 143° |
| 2026-04-24 21:20 | 48.12168 | 8.93179 | 5506 ft | 172 kts | 143° |
| 2026-04-24 21:21 | 48.11215 | 8.94278 | 5509 ft | 173 kts | 143° |
| 2026-04-24 21:21 | 48.10266 | 8.95376 | 5501 ft | 171 kts | 142° |
| 2026-04-24 21:21 | 48.09332 | 8.96475 | 5494 ft | 170 kts | 144° |
| 2026-04-24 21:21 | 48.08398 | 8.97540 | 5491 ft | 168 kts | 144° |
| 2026-04-24 21:22 | 48.07473 | 8.98615 | 5491 ft | 168 kts | 143° |
| 2026-04-24 21:22 | 48.06549 | 8.99693 | 5490 ft | 169 kts | 144° |
| 2026-04-24 21:22 | 48.05625 | 9.00779 | 5492 ft | 169 kts | 143° |
| 2026-04-24 21:22 | 48.05014 | 9.01496 | 5490 ft | 168 kts | 143° |
| 2026-04-24 21:23 | 48.03770 | 9.02944 | 5502 ft | 171 kts | 144° |
| 2026-04-24 21:23 | 48.02835 | 9.04037 | 5492 ft | 169 kts | 143° |
| 2026-04-24 21:23 | 48.01904 | 9.05120 | 5498 ft | 171 kts | 143° |
| 2026-04-24 21:23 | 48.00962 | 9.06213 | 5496 ft | 171 kts | 143° |
| 2026-04-24 21:24 | 48.00024 | 9.07295 | 5500 ft | 171 kts | 144° |
| 2026-04-24 21:24 | 47.99087 | 9.08377 | 5501 ft | 170 kts | 143° |
| 2026-04-24 21:24 | 47.98150 | 9.09468 | 5495 ft | 170 kts | 143° |
| 2026-04-24 21:24 | 47.97221 | 9.10546 | 5494 ft | 169 kts | 144° |
| 2026-04-24 21:25 | 47.96288 | 9.11630 | 5492 ft | 170 kts | 143° |
| 2026-04-24 21:25 | 47.95376 | 9.12703 | 5492 ft | 169 kts | 143° |
| 2026-04-24 21:25 | 47.94456 | 9.13786 | 5486 ft | 169 kts | 144° |
| 2026-04-24 21:25 | 47.93534 | 9.14862 | 5487 ft | 168 kts | 143° |
| 2026-04-24 21:26 | 47.92601 | 9.15921 | 5486 ft | 168 kts | 147° |
| 2026-04-24 21:26 | 47.91612 | 9.16852 | 5493 ft | 169 kts | 149° |
| 2026-04-24 21:26 | 47.90612 | 9.17786 | 5487 ft | 170 kts | 149° |
| 2026-04-24 21:26 | 47.89612 | 9.18727 | 5491 ft | 170 kts | 149° |
| 2026-04-24 21:27 | 47.88615 | 9.19654 | 5490 ft | 168 kts | 149° |
| 2026-04-24 21:27 | 47.87623 | 9.20574 | 5490 ft | 168 kts | 149° |
| 2026-04-24 21:27 | 47.86635 | 9.21494 | 5489 ft | 168 kts | 149° |
| 2026-04-24 21:27 | 47.85980 | 9.22106 | 5489 ft | 168 kts | 149° |
| 2026-04-24 21:28 | 47.84656 | 9.23326 | 5488 ft | 167 kts | 150° |
| 2026-04-24 21:28 | 47.83666 | 9.24236 | 5488 ft | 167 kts | 149° |
| 2026-04-24 21:28 | 47.83015 | 9.24838 | 5488 ft | 166 kts | 149° |
| 2026-04-24 21:28 | 47.82031 | 9.25742 | 5487 ft | 166 kts | 149° |
| 2026-04-24 21:29 | 47.81048 | 9.26637 | 5488 ft | 166 kts | 149° |
| 2026-04-24 21:29 | 47.79738 | 9.27839 | 5487 ft | 166 kts | 150° |
| 2026-04-24 21:29 | 47.79070 | 9.28440 | 5484 ft | 166 kts | 150° |
| 2026-04-24 21:29 | 47.78064 | 9.29275 | 5484 ft | 164 kts | 157° |
| 2026-04-24 21:30 | 47.77069 | 9.30147 | 5484 ft | 171 kts | 145° |
| 2026-04-24 21:30 | 47.76089 | 9.31173 | 5489 ft | 178 kts | 147° |
| 2026-04-24 21:30 | 47.75016 | 9.32192 | 5494 ft | 182 kts | 148° |
| 2026-04-24 21:30 | 47.73944 | 9.33177 | 5496 ft | 184 kts | 149° |
| 2026-04-24 21:31 | 47.72849 | 9.34181 | 5492 ft | 186 kts | 149° |
| 2026-04-24 21:31 | 47.71749 | 9.35189 | 5486 ft | 187 kts | 149° |
| 2026-04-24 21:31 | 47.70643 | 9.36198 | 5490 ft | 186 kts | 149° |
| 2026-04-24 21:31 | 47.69535 | 9.37197 | 5487 ft | 186 kts | 149° |
| 2026-04-24 21:32 | 47.68429 | 9.38191 | 5497 ft | 186 kts | 149° |
| 2026-04-24 21:32 | 47.67308 | 9.39204 | 5498 ft | 193 kts | 149° |
| 2026-04-24 21:32 | 47.66141 | 9.40266 | 5501 ft | 198 kts | 149° |
| 2026-04-24 21:32 | 47.64959 | 9.41341 | 5502 ft | 200 kts | 149° |
| 2026-04-24 21:33 | 47.63769 | 9.42431 | 5500 ft | 202 kts | 149° |
| 2026-04-24 21:33 | 47.62572 | 9.43525 | 5500 ft | 202 kts | 149° |
| 2026-04-24 21:33 | 47.61368 | 9.44599 | 5500 ft | 202 kts | 149° |
| 2026-04-24 21:33 | 47.60157 | 9.45663 | 5501 ft | 202 kts | 149° |
| 2026-04-24 21:34 | 47.58949 | 9.46720 | 5499 ft | 202 kts | 149° |
| 2026-04-24 21:34 | 47.57740 | 9.47779 | 5498 ft | 202 kts | 149° |
| 2026-04-24 21:34 | 47.56532 | 9.48837 | 5499 ft | 202 kts | 149° |
| 2026-04-24 21:34 | 47.55324 | 9.49893 | 5499 ft | 202 kts | 149° |
| 2026-04-24 21:35 | 47.54114 | 9.50949 | 5499 ft | 201 kts | 149° |
| 2026-04-24 21:35 | 47.52908 | 9.52002 | 5499 ft | 202 kts | 149° |
| 2026-04-24 21:35 | 47.51714 | 9.53044 | 5498 ft | 202 kts | 149° |
| 2026-04-24 21:35 | 47.50505 | 9.54100 | 5499 ft | 202 kts | 149° |
| 2026-04-24 21:36 | 47.49296 | 9.55154 | 5499 ft | 202 kts | 149° |
| 2026-04-24 21:36 | 47.48087 | 9.56208 | 5498 ft | 202 kts | 149° |
| 2026-04-24 21:36 | 47.46875 | 9.57270 | 5499 ft | 202 kts | 147° |
| 2026-04-24 21:36 | 47.45988 | 9.58838 | 5488 ft | 202 kts | 111° |
| 2026-04-24 21:37 | 47.45674 | 9.60854 | 5489 ft | 202 kts | 100° |
| 2026-04-24 21:37 | 47.45441 | 9.62906 | 5453 ft | 204 kts | 99° |
| 2026-04-24 21:37 | 47.45138 | 9.64961 | 5410 ft | 205 kts | 114° |
| 2026-04-24 21:37 | 47.44159 | 9.66444 | 5388 ft | 203 kts | 148° |
| 2026-04-24 21:38 | 47.42834 | 9.67049 | 5382 ft | 201 kts | 180° |
| 2026-04-24 21:38 | 47.41490 | 9.66530 | 5385 ft | 200 kts | 201° |
| 2026-04-24 21:38 | 47.40233 | 9.65654 | 5385 ft | 200 kts | 208° |
| 2026-04-24 21:38 | 47.39024 | 9.64661 | 5403 ft | 199 kts | 208° |
| 2026-04-24 21:39 | 47.37803 | 9.63685 | 5401 ft | 199 kts | 208° |
| 2026-04-24 21:39 | 47.36570 | 9.62836 | 5425 ft | 194 kts | 204° |
| 2026-04-24 21:39 | 47.35365 | 9.61945 | 5392 ft | 195 kts | 207° |
| 2026-04-24 21:39 | 47.34203 | 9.60905 | 5364 ft | 195 kts | 211° |
| 2026-04-24 21:40 | 47.33020 | 9.59910 | 5371 ft | 196 kts | 210° |
| 2026-04-24 21:40 | 47.31850 | 9.58956 | 5375 ft | 193 kts | 210° |
| 2026-04-24 21:40 | 47.30694 | 9.57978 | 5373 ft | 191 kts | 210° |
| 2026-04-24 21:40 | 47.29579 | 9.56932 | 5374 ft | 190 kts | 214° |
| 2026-04-24 21:41 | 47.28516 | 9.55791 | 5375 ft | 189 kts | 216° |
| 2026-04-24 21:41 | 47.27485 | 9.54588 | 5372 ft | 189 kts | 222° |
| 2026-04-24 21:41 | 47.26527 | 9.53259 | 5374 ft | 189 kts | 224° |
| 2026-04-24 21:41 | 47.25537 | 9.51986 | 5368 ft | 190 kts | 217° |
| 2026-04-24 21:42 | 47.24438 | 9.50905 | 5370 ft | 190 kts | 210° |
| 2026-04-24 21:42 | 47.23258 | 9.50030 | 5367 ft | 190 kts | 202° |
| 2026-04-24 21:42 | 47.22053 | 9.49221 | 5372 ft | 190 kts | 204° |
| 2026-04-24 21:42 | 47.20814 | 9.48566 | 5384 ft | 189 kts | 194° |
| 2026-04-24 21:43 | 47.19515 | 9.48267 | 5383 ft | 189 kts | 183° |
| 2026-04-24 21:43 | 47.18198 | 9.48310 | 5380 ft | 189 kts | 175° |
| 2026-04-24 21:43 | 47.16889 | 9.48528 | 5377 ft | 190 kts | 172° |
| 2026-04-24 21:43 | 47.15580 | 9.48792 | 5376 ft | 190 kts | 173° |
| 2026-04-24 21:44 | 47.14271 | 9.49064 | 5372 ft | 190 kts | 171° |
| 2026-04-24 21:44 | 47.12960 | 9.49375 | 5351 ft | 191 kts | 172° |
| 2026-04-24 21:44 | 47.11642 | 9.49554 | 5346 ft | 190 kts | 175° |
| 2026-04-24 21:44 | 47.10324 | 9.49626 | 5355 ft | 189 kts | 179° |
| 2026-04-24 21:45 | 47.09024 | 9.49388 | 5354 ft | 185 kts | 190° |
| 2026-04-24 21:45 | 47.07765 | 9.49107 | 5356 ft | 181 kts | 185° |
| 2026-04-24 21:45 | 47.06510 | 9.48986 | 5347 ft | 180 kts | 180° |
| 2026-04-24 21:45 | 47.05312 | 9.49328 | 5386 ft | 178 kts | 161° |
| 2026-04-24 21:46 | 47.04108 | 9.49723 | 5377 ft | 179 kts | 171° |
| 2026-04-24 21:46 | 47.02871 | 9.49975 | 5370 ft | 180 kts | 173° |
| 2026-04-24 21:46 | 47.01627 | 9.50202 | 5372 ft | 180 kts | 172° |
| 2026-04-24 21:46 | 47.00534 | 9.51010 | 5367 ft | 180 kts | 134° |
| 2026-04-24 21:47 | 46.99777 | 9.52471 | 5373 ft | 180 kts | 126° |
| 2026-04-24 21:47 | 46.99281 | 9.53473 | 5372 ft | 180 kts | 129° |
| 2026-04-24 21:47 | 46.97850 | 9.54582 | 5369 ft | 180 kts | 170° |
| 2026-04-24 21:47 | 46.96609 | 9.54811 | 5372 ft | 180 kts | 173° |
| 2026-04-24 21:48 | 46.95367 | 9.55020 | 5373 ft | 179 kts | 173° |
| 2026-04-24 21:48 | 46.94121 | 9.55061 | 5373 ft | 180 kts | 181° |
| 2026-04-24 21:48 | 46.92872 | 9.55011 | 5374 ft | 180 kts | 181° |
| 2026-04-24 21:48 | 46.91622 | 9.54941 | 5372 ft | 180 kts | 185° |
| 2026-04-24 21:49 | 46.90387 | 9.54625 | 5372 ft | 180 kts | 191° |
| 2026-04-24 21:49 | 46.89176 | 9.54164 | 5371 ft | 180 kts | 199° |
| 2026-04-24 21:49 | 46.88005 | 9.53498 | 5371 ft | 180 kts | 206° |
| 2026-04-24 21:49 | 46.86934 | 9.52541 | 5370 ft | 181 kts | 215° |
| 2026-04-24 21:50 | 46.85947 | 9.51406 | 5370 ft | 181 kts | 225° |
| 2026-04-24 21:50 | 46.85162 | 9.49971 | 5369 ft | 181 kts | 234° |
| 2026-04-24 21:50 | 46.84427 | 9.48476 | 5369 ft | 181 kts | 234° |
| 2026-04-24 21:50 | 46.83719 | 9.46958 | 5369 ft | 181 kts | 239° |
| 2026-04-24 21:51 | 46.83103 | 9.45400 | 5366 ft | 171 kts | 240° |
| 2026-04-24 21:51 | 46.82540 | 9.43946 | 5354 ft | 157 kts | 240° |
| 2026-04-24 21:51 | 46.82028 | 9.42621 | 5352 ft | 144 kts | 240° |
| 2026-04-24 21:51 | 46.81500 | 9.41447 | 5349 ft | 134 kts | 220° |
| 2026-04-24 21:52 | 46.80740 | 9.40714 | 5348 ft | 129 kts | 214° |
| 2026-04-24 21:52 | 46.79919 | 9.40275 | 5351 ft | 125 kts | 188° |
| 2026-04-24 21:52 | 46.79060 | 9.40292 | 5354 ft | 123 kts | 175° |
| 2026-04-24 21:52 | 46.78221 | 9.40571 | 5352 ft | 124 kts | 161° |
| 2026-04-24 21:53 | 46.77407 | 9.40959 | 5353 ft | 124 kts | 160° |
| 2026-04-24 21:53 | 46.76633 | 9.41549 | 5357 ft | 124 kts | 149° |
| 2026-04-24 21:53 | 46.75889 | 9.42158 | 5356 ft | 125 kts | 149° |
| 2026-04-24 21:53 | 46.75131 | 9.42785 | 5355 ft | 125 kts | 149° |
| 2026-04-24 21:54 | 46.74472 | 9.43336 | 5346 ft | 124 kts | 149° |
| 2026-04-24 21:54 | 46.73723 | 9.43952 | 5348 ft | 124 kts | 149° |
| 2026-04-24 21:54 | 46.72972 | 9.44572 | 5348 ft | 124 kts | 149° |
| 2026-04-24 21:54 | 46.72224 | 9.45189 | 5351 ft | 124 kts | 149° |
| 2026-04-24 21:55 | 46.71482 | 9.45796 | 5477 ft | 123 kts | 150° |
| 2026-04-24 21:55 | 46.70627 | 9.45988 | 5680 ft | 130 kts | 180° |
| 2026-04-24 21:55 | 46.69711 | 9.46011 | 5895 ft | 133 kts | 178° |
| 2026-04-24 21:55 | 46.68775 | 9.46036 | 6104 ft | 135 kts | 179° |
| 2026-04-24 21:56 | 46.67832 | 9.46059 | 6313 ft | 136 kts | 178° |
| 2026-04-24 21:56 | 46.66881 | 9.46083 | 6467 ft | 140 kts | 181° |
| 2026-04-24 21:56 | 46.65877 | 9.45826 | 6474 ft | 152 kts | 193° |
| 2026-04-24 21:56 | 46.64848 | 9.45420 | 6465 ft | 155 kts | 198° |
| 2026-04-24 21:57 | 46.63815 | 9.44858 | 6474 ft | 160 kts | 200° |
| 2026-04-24 21:57 | 46.62771 | 9.44286 | 6471 ft | 161 kts | 200° |
| 2026-04-24 21:57 | 46.61727 | 9.43713 | 6475 ft | 159 kts | 200° |
| 2026-04-24 21:57 | 46.60699 | 9.43143 | 6475 ft | 158 kts | 200° |
| 2026-04-24 21:58 | 46.59676 | 9.42577 | 6473 ft | 157 kts | 200° |
| 2026-04-24 21:58 | 46.58661 | 9.42020 | 6468 ft | 156 kts | 200° |
| 2026-04-24 21:58 | 46.57640 | 9.41429 | 6454 ft | 160 kts | 207° |
| 2026-04-24 21:58 | 46.56868 | 9.40371 | 6454 ft | 151 kts | 246° |
| 2026-04-24 21:59 | 46.56476 | 9.38943 | 6447 ft | 152 kts | 260° |
| 2026-04-24 21:59 | 46.56267 | 9.37413 | 6445 ft | 163 kts | 260° |
| 2026-04-24 21:59 | 46.56059 | 9.35786 | 6493 ft | 157 kts | 274° |
| 2026-04-24 21:59 | 46.56671 | 9.35012 | 6837 ft | 130 kts | 17° |
| 2026-04-24 22:00 | 46.57174 | 9.36202 | 6356 ft | 163 kts | 91° |
| 2026-04-24 22:00 | 46.56695 | 9.37485 | 6671 ft | 136 kts | 160° |
| 2026-04-24 22:00 | 46.55946 | 9.36958 | 6886 ft | 142 kts | 250° |
| 2026-04-24 22:00 | 46.55698 | 9.35393 | 6518 ft | 175 kts | 251° |
| 2026-04-24 22:01 | 46.55272 | 9.33880 | 6766 ft | 142 kts | 295° |
| 2026-04-24 22:01 | 46.56025 | 9.33575 | 6929 ft | 132 kts | 36° |
| 2026-04-24 22:01 | 46.56400 | 9.34999 | 6357 ft | 172 kts | 72° |
| 2026-04-24 22:01 | 46.56703 | 9.36666 | 6158 ft | 168 kts | 75° |
| 2026-04-24 22:02 | 46.56708 | 9.38210 | 6259 ft | 143 kts | 140° |
| 2026-04-24 22:02 | 46.56102 | 9.37837 | 6780 ft | 129 kts | 257° |
| 2026-04-24 22:02 | 46.56023 | 9.36411 | 6452 ft | 153 kts | 262° |
| 2026-04-24 22:02 | 46.55727 | 9.34903 | 6414 ft | 143 kts | 255° |
| 2026-04-24 22:03 | 46.55430 | 9.33577 | 6419 ft | 133 kts | 255° |
| 2026-04-24 22:03 | 46.55192 | 9.32157 | 6290 ft | 156 kts | 261° |
| 2026-04-24 22:03 | 46.55071 | 9.30592 | 6304 ft | 154 kts | 271° |
| 2026-04-24 22:03 | 46.54851 | 9.29100 | 6420 ft | 155 kts | 251° |
| 2026-04-24 22:04 | 46.54427 | 9.27635 | 6418 ft | 159 kts | 250° |
| 2026-04-24 22:04 | 46.53990 | 9.26177 | 6434 ft | 161 kts | 251° |
| 2026-04-24 22:04 | 46.53704 | 9.24593 | 6471 ft | 162 kts | 263° |
| 2026-04-24 22:04 | 46.53533 | 9.23018 | 6718 ft | 155 kts | 262° |
| 2026-04-24 22:05 | 46.53360 | 9.21508 | 6924 ft | 146 kts | 262° |
| 2026-04-24 22:05 | 46.53119 | 9.20135 | 7156 ft | 139 kts | 253° |
| 2026-04-24 22:05 | 46.52794 | 9.18865 | 7494 ft | 132 kts | 253° |
| 2026-04-24 22:05 | 46.52151 | 9.17962 | 7844 ft | 136 kts | 201° |
| 2026-04-24 22:06 | 46.51161 | 9.17651 | 7933 ft | 158 kts | 181° |
| 2026-04-24 22:06 | 46.50014 | 9.17565 | 7944 ft | 171 kts | 186° |
| 2026-04-24 22:06 | 46.48794 | 9.17454 | 7938 ft | 179 kts | 174° |
| 2026-04-24 22:06 | 46.47584 | 9.17886 | 7944 ft | 180 kts | 162° |
| 2026-04-24 22:07 | 46.46389 | 9.18427 | 7938 ft | 180 kts | 160° |
| 2026-04-24 22:07 | 46.45245 | 9.19206 | 7843 ft | 185 kts | 148° |
| 2026-04-24 22:07 | 46.44127 | 9.20202 | 7668 ft | 191 kts | 146° |
| 2026-04-24 22:07 | 46.42987 | 9.21236 | 7417 ft | 196 kts | 147° |
| 2026-04-24 22:08 | 46.41778 | 9.22241 | 7071 ft | 200 kts | 150° |
| 2026-04-24 22:08 | 46.40539 | 9.23062 | 6712 ft | 194 kts | 161° |
| 2026-04-24 22:08 | 46.39213 | 9.23467 | 6346 ft | 196 kts | 173° |
| 2026-04-24 22:08 | 46.37838 | 9.23600 | 5506 ft | 209 kts | 183° |
| 2026-04-24 22:09 | 46.36395 | 9.23022 | 4262 ft | 226 kts | 203° |
| 2026-04-24 22:09 | 46.34988 | 9.22122 | 3466 ft | 217 kts | 206° |
| 2026-04-24 22:09 | 46.33626 | 9.21295 | 2939 ft | 203 kts | 202° |
| 2026-04-24 22:09 | 46.32420 | 9.20548 | 2874 ft | 175 kts | 206° |
| 2026-04-24 22:10 | 46.31362 | 9.19819 | 2703 ft | 165 kts | 213° |
| 2026-04-24 22:10 | 46.30403 | 9.19108 | 2749 ft | 149 kts | 196° |
| 2026-04-24 22:10 | 46.29447 | 9.18741 | 2784 ft | 140 kts | 198° |
| 2026-04-24 22:10 | 46.28543 | 9.18271 | 2787 ft | 137 kts | 201° |
| 2026-04-24 22:11 | 46.27656 | 9.17798 | 2790 ft | 136 kts | 202° |
| 2026-04-24 22:11 | 46.26798 | 9.17265 | 2786 ft | 136 kts | 206° |
| 2026-04-24 22:11 | 46.25969 | 9.16585 | 2791 ft | 138 kts | 213° |
| 2026-04-24 22:11 | 46.25149 | 9.15841 | 2797 ft | 140 kts | 216° |
| 2026-04-24 22:12 | 46.24454 | 9.14886 | 2805 ft | 138 kts | 237° |
| 2026-04-24 22:12 | 46.23982 | 9.13689 | 2793 ft | 136 kts | 244° |
| 2026-04-24 22:12 | 46.23633 | 9.12418 | 2803 ft | 137 kts | 258° |
| 2026-04-24 22:12 | 46.23394 | 9.11081 | 2802 ft | 138 kts | 259° |
| 2026-04-24 22:13 | 46.23141 | 9.09728 | 2806 ft | 145 kts | 257° |
| 2026-04-24 22:13 | 46.22883 | 9.08277 | 2808 ft | 151 kts | 259° |
| 2026-04-24 22:13 | 46.22593 | 9.06804 | 2805 ft | 154 kts | 255° |
| 2026-04-24 22:13 | 46.22160 | 9.05425 | 2796 ft | 151 kts | 233° |
| 2026-04-24 22:14 | 46.21464 | 9.04307 | 2798 ft | 149 kts | 230° |
| 2026-04-24 22:14 | 46.20787 | 9.03218 | 2805 ft | 146 kts | 230° |
| 2026-04-24 22:14 | 46.20124 | 9.02124 | 2803 ft | 143 kts | 230° |
| 2026-04-24 22:14 | 46.19474 | 9.01055 | 2792 ft | 140 kts | 230° |
| 2026-04-24 22:15 | 46.18841 | 9.00010 | 2794 ft | 136 kts | 230° |
| 2026-04-24 22:15 | 46.18245 | 8.98953 | 2793 ft | 136 kts | 236° |
| 2026-04-24 22:15 | 46.17717 | 8.97820 | 2790 ft | 136 kts | 238° |
| 2026-04-24 22:15 | 46.17206 | 8.96693 | 2792 ft | 134 kts | 246° |
| 2026-04-24 22:16 | 46.16992 | 8.95391 | 2797 ft | 135 kts | 260° |
| 2026-04-24 22:16 | 46.16851 | 8.94517 | 2797 ft | 135 kts | 259° |
| 2026-04-24 22:16 | 46.16643 | 8.93166 | 2794 ft | 142 kts | 260° |
| 2026-04-24 22:16 | 46.16425 | 8.91761 | 2800 ft | 145 kts | 258° |
| 2026-04-24 22:17 | 46.16213 | 8.90327 | 2808 ft | 147 kts | 259° |
| 2026-04-24 22:17 | 46.15975 | 8.88872 | 2810 ft | 151 kts | 253° |
| 2026-04-24 22:17 | 46.15622 | 8.87438 | 2808 ft | 153 kts | 251° |
| 2026-04-24 22:17 | 46.15262 | 8.85986 | 2808 ft | 155 kts | 251° |
| 2026-04-24 22:18 | 46.14892 | 8.84524 | 2807 ft | 155 kts | 251° |
| 2026-04-24 22:18 | 46.14523 | 8.83067 | 2805 ft | 154 kts | 251° |
| 2026-04-24 22:18 | 46.14158 | 8.81633 | 2870 ft | 150 kts | 251° |
| 2026-04-24 22:18 | 46.13795 | 8.80211 | 2868 ft | 152 kts | 251° |
| 2026-04-24 22:19 | 46.13434 | 8.78773 | 2869 ft | 153 kts | 251° |
| 2026-04-24 22:19 | 46.13012 | 8.77364 | 2867 ft | 154 kts | 242° |
| 2026-04-24 22:19 | 46.12450 | 8.76053 | 2870 ft | 154 kts | 240° |
| 2026-04-24 22:19 | 46.11888 | 8.74734 | 2870 ft | 155 kts | 240° |
| 2026-04-24 22:20 | 46.11295 | 8.73444 | 2867 ft | 155 kts | 230° |
| 2026-04-24 22:20 | 46.10549 | 8.72330 | 2873 ft | 154 kts | 228° |
| 2026-04-24 22:20 | 46.09739 | 8.71357 | 2868 ft | 155 kts | 209° |
| 2026-04-24 22:20 | 46.08776 | 8.70669 | 2865 ft | 155 kts | 206° |
| 2026-04-24 22:21 | 46.07723 | 8.70495 | 2868 ft | 155 kts | 172° |
| 2026-04-24 22:21 | 46.06651 | 8.70704 | 2870 ft | 156 kts | 172° |
| 2026-04-24 22:21 | 46.05573 | 8.70912 | 2870 ft | 156 kts | 172° |
| 2026-04-24 22:21 | 46.04490 | 8.71124 | 2874 ft | 157 kts | 172° |
| 2026-04-24 22:22 | 46.03474 | 8.71643 | 2874 ft | 156 kts | 148° |
| 2026-04-24 22:22 | 46.02547 | 8.72462 | 2877 ft | 156 kts | 148° |
| 2026-04-24 22:22 | 46.01620 | 8.73277 | 2877 ft | 157 kts | 148° |
| 2026-04-24 22:22 | 46.00873 | 8.74382 | 2878 ft | 155 kts | 122° |
| 2026-04-24 22:23 | 46.00360 | 8.75741 | 2882 ft | 155 kts | 115° |
| 2026-04-24 22:23 | 45.99919 | 8.77156 | 2883 ft | 155 kts | 114° |
| 2026-04-24 22:23 | 45.99732 | 8.78666 | 2880 ft | 154 kts | 95° |
| 2026-04-24 22:23 | 45.99531 | 8.80181 | 2882 ft | 154 kts | 102° |
| 2026-04-24 22:24 | 45.99224 | 8.81662 | 2882 ft | 155 kts | 112° |
| 2026-04-24 22:24 | 45.98761 | 8.83059 | 2883 ft | 155 kts | 119° |
| 2026-04-24 22:24 | 45.98062 | 8.84166 | 2828 ft | 145 kts | 147° |
| 2026-04-24 22:24 | 45.97190 | 8.84891 | 2587 ft | 144 kts | 151° |
| 2026-04-24 22:25 | 45.96360 | 8.85554 | 2572 ft | 129 kts | 146° |
| 2026-04-24 22:25 | 45.95827 | 8.86715 | 2393 ft | 159 kts | 105° |
| 2026-04-24 22:25 | 45.95891 | 8.88289 | 2285 ft | 158 kts | 68° |
| 2026-04-24 22:25 | 45.96616 | 8.89187 | 2017 ft | 123 kts | 15° |
| 2026-04-24 22:26 | 45.97364 | 8.89521 | 1734 ft | 106 kts | 19° |
| 2026-04-24 22:26 | 45.98052 | 8.89874 | 1501 ft | 104 kts | 19° |
| 2026-04-24 22:26 | 45.98749 | 8.90218 | 1264 ft | 104 kts | 20° |
| 2026-04-24 22:26 | 45.99425 | 8.90556 | 1114 ft | 101 kts | 20° |
| 2026-04-24 22:27 | 46.00041 | 8.90868 | 914 ft | 80 kts | 17° |
| 2026-04-24 22:27 | 46.00440 | 8.91063 | 900 ft | 37 kts | 19° |
| 2026-04-24 22:27 | 46.00622 | 8.91161 | 898 ft | 8 kts | 67° |
| 2026-04-24 22:27 | 46.00600 | 8.91224 | 899 ft | 0 kts | 112° |
| 2026-04-24 22:29 | 46.00597 | 8.91210 | 899 ft | 10 kts | 343° |
| 2026-04-24 22:29 | 46.00556 | 8.91122 | 901 ft | 17 kts | 198° |
| 2026-04-24 22:29 | 46.00456 | 8.91026 | 900 ft | 15 kts | 269° |
| 2026-04-24 22:30 | 46.00380 | 8.90924 | 898 ft | 22 kts | 199° |
| 2026-04-24 22:30 | 46.00236 | 8.90851 | 897 ft | 14 kts | 198° |
| 2026-04-24 22:30 | 46.00220 | 8.90766 | 897 ft | 5 kts | 247° |
| 2026-04-24 22:30 | 46.00209 | 8.90758 | 897 ft | 0 kts | 198° |